sensor_id;sensor_type;location;lat;lon;timestamp;temperature;humidity
35970;DHT22;22448;51.298;6.430;2022-09-03T00:01:15;15.90;90.60
35970;DHT22;22448;51.298;6.430;2022-09-03T00:03:48;15.90;90.90
35970;DHT22;22448;51.298;6.430;2022-09-03T00:06:26;15.90;90.80
35970;DHT22;22448;51.298;6.430;2022-09-03T00:09:06;15.90;90.90
35970;DHT22;22448;51.298;6.430;2022-09-03T00:11:59;15.90;91.10
35970;DHT22;22448;51.298;6.430;2022-09-03T00:14:39;15.80;91.20
35970;DHT22;22448;51.298;6.430;2022-09-03T00:17:24;15.80;91.30
35970;DHT22;22448;51.298;6.430;2022-09-03T00:19:57;15.70;91.40
35970;DHT22;22448;51.298;6.430;2022-09-03T00:22:33;15.70;91.60
35970;DHT22;22448;51.298;6.430;2022-09-03T00:25:04;15.60;91.70
35970;DHT22;22448;51.298;6.430;2022-09-03T00:27:37;15.60;91.70
35970;DHT22;22448;51.298;6.430;2022-09-03T00:30:09;15.60;91.60
35970;DHT22;22448;51.298;6.430;2022-09-03T00:37:53;15.70;91.00
35970;DHT22;22448;51.298;6.430;2022-09-03T00:43:19;15.80;90.70
35970;DHT22;22448;51.298;6.430;2022-09-03T00:48:57;15.80;90.70
35970;DHT22;22448;51.298;6.430;2022-09-03T00:51:44;15.80;90.80
35970;DHT22;22448;51.298;6.430;2022-09-03T00:59:53;15.80;90.80
35970;DHT22;22448;51.298;6.430;2022-09-03T01:08:02;15.70;91.00
35970;DHT22;22448;51.298;6.430;2022-09-03T01:13:17;15.70;90.70
35970;DHT22;22448;51.298;6.430;2022-09-03T01:19:00;15.70;90.60
35970;DHT22;22448;51.298;6.430;2022-09-03T01:21:59;15.80;90.60
35970;DHT22;22448;51.298;6.430;2022-09-03T01:30:05;16.00;90.30
35970;DHT22;22448;51.298;6.430;2022-09-03T01:33:00;16.00;90.10
35970;DHT22;22448;51.298;6.430;2022-09-03T01:35:49;16.10;90.00
35970;DHT22;22448;51.298;6.430;2022-09-03T01:41:35;16.20;89.70
35970;DHT22;22448;51.298;6.430;2022-09-03T01:50:14;16.30;89.50
35970;DHT22;22448;51.298;6.430;2022-09-03T01:55:56;16.30;89.60
35970;DHT22;22448;51.298;6.430;2022-09-03T01:58:50;16.30;89.70
35970;DHT22;22448;51.298;6.430;2022-09-03T02:01:36;16.30;89.70
35970;DHT22;22448;51.298;6.430;2022-09-03T02:04:17;16.30;89.90
35970;DHT22;22448;51.298;6.430;2022-09-03T02:06:46;16.20;89.90
35970;DHT22;22448;51.298;6.430;2022-09-03T02:09:15;16.20;89.90
35970;DHT22;22448;51.298;6.430;2022-09-03T02:11:47;16.20;89.90
35970;DHT22;22448;51.298;6.430;2022-09-03T02:14:17;16.20;89.90
35970;DHT22;22448;51.298;6.430;2022-09-03T02:16:44;16.20;89.90
35970;DHT22;22448;51.298;6.430;2022-09-03T02:19:15;16.20;89.80
35970;DHT22;22448;51.298;6.430;2022-09-03T02:21:48;16.20;89.80
35970;DHT22;22448;51.298;6.430;2022-09-03T02:24:16;16.20;90.00
35970;DHT22;22448;51.298;6.430;2022-09-03T02:26:44;16.20;89.90
35970;DHT22;22448;51.298;6.430;2022-09-03T02:29:13;16.30;89.90
35970;DHT22;22448;51.298;6.430;2022-09-03T02:31:40;16.20;90.20
35970;DHT22;22448;51.298;6.430;2022-09-03T02:34:08;16.20;90.10
35970;DHT22;22448;51.298;6.430;2022-09-03T02:36:41;16.20;90.10
35970;DHT22;22448;51.298;6.430;2022-09-03T02:39:08;16.10;90.20
35970;DHT22;22448;51.298;6.430;2022-09-03T02:41:35;16.00;90.40
35970;DHT22;22448;51.298;6.430;2022-09-03T02:46:44;15.80;90.70
35970;DHT22;22448;51.298;6.430;2022-09-03T02:49:12;15.80;90.90
35970;DHT22;22448;51.298;6.430;2022-09-03T02:51:41;15.70;91.00
35970;DHT22;22448;51.298;6.430;2022-09-03T02:54:11;15.60;91.10
35970;DHT22;22448;51.298;6.430;2022-09-03T02:56:38;15.60;91.30
35970;DHT22;22448;51.298;6.430;2022-09-03T02:59:06;15.50;91.30
35970;DHT22;22448;51.298;6.430;2022-09-03T03:01:34;15.50;91.30
35970;DHT22;22448;51.298;6.430;2022-09-03T03:04:03;15.50;91.40
35970;DHT22;22448;51.298;6.430;2022-09-03T03:06:30;15.50;91.40
35970;DHT22;22448;51.298;6.430;2022-09-03T03:08:57;15.50;91.50
35970;DHT22;22448;51.298;6.430;2022-09-03T03:11:25;15.50;91.60
35970;DHT22;22448;51.298;6.430;2022-09-03T03:13:53;15.40;91.60
35970;DHT22;22448;51.298;6.430;2022-09-03T03:16:20;15.40;91.60
35970;DHT22;22448;51.298;6.430;2022-09-03T03:18:47;15.40;91.80
35970;DHT22;22448;51.298;6.430;2022-09-03T03:21:16;15.30;91.80
35970;DHT22;22448;51.298;6.430;2022-09-03T03:23:44;15.30;91.90
35970;DHT22;22448;51.298;6.430;2022-09-03T03:26:14;15.30;92.00
35970;DHT22;22448;51.298;6.430;2022-09-03T03:28:43;15.20;92.10
35970;DHT22;22448;51.298;6.430;2022-09-03T03:31:14;15.20;92.10
35970;DHT22;22448;51.298;6.430;2022-09-03T03:33:42;15.20;92.00
35970;DHT22;22448;51.298;6.430;2022-09-03T03:36:12;15.20;91.90
35970;DHT22;22448;51.298;6.430;2022-09-03T03:38:41;15.20;92.10
35970;DHT22;22448;51.298;6.430;2022-09-03T03:41:23;15.20;92.20
35970;DHT22;22448;51.298;6.430;2022-09-03T03:43:52;15.20;92.40
35970;DHT22;22448;51.298;6.430;2022-09-03T03:46:21;15.20;92.50
35970;DHT22;22448;51.298;6.430;2022-09-03T03:48:50;15.10;92.50
35970;DHT22;22448;51.298;6.430;2022-09-03T03:51:18;15.00;92.50
35970;DHT22;22448;51.298;6.430;2022-09-03T03:53:45;15.10;92.60
35970;DHT22;22448;51.298;6.430;2022-09-03T03:56:14;15.10;92.80
35970;DHT22;22448;51.298;6.430;2022-09-03T03:58:42;15.00;92.80
35970;DHT22;22448;51.298;6.430;2022-09-03T04:01:13;15.00;93.10
35970;DHT22;22448;51.298;6.430;2022-09-03T04:03:41;14.90;93.40
35970;DHT22;22448;51.298;6.430;2022-09-03T04:06:09;14.80;93.50
35970;DHT22;22448;51.298;6.430;2022-09-03T04:08:39;14.70;93.80
35970;DHT22;22448;51.298;6.430;2022-09-03T04:11:08;14.60;94.00
35970;DHT22;22448;51.298;6.430;2022-09-03T04:13:39;14.50;94.30
35970;DHT22;22448;51.298;6.430;2022-09-03T04:16:17;14.40;94.60
35970;DHT22;22448;51.298;6.430;2022-09-03T04:18:45;14.30;94.90
35970;DHT22;22448;51.298;6.430;2022-09-03T04:21:15;14.20;95.20
35970;DHT22;22448;51.298;6.430;2022-09-03T04:23:45;14.20;95.40
35970;DHT22;22448;51.298;6.430;2022-09-03T04:26:15;14.10;95.90
35970;DHT22;22448;51.298;6.430;2022-09-03T04:28:43;14.00;96.10
35970;DHT22;22448;51.298;6.430;2022-09-03T04:31:13;14.00;96.10
35970;DHT22;22448;51.298;6.430;2022-09-03T04:33:41;14.00;96.40
35970;DHT22;22448;51.298;6.430;2022-09-03T04:38:38;13.90;96.40
35970;DHT22;22448;51.298;6.430;2022-09-03T04:41:07;13.90;96.80
35970;DHT22;22448;51.298;6.430;2022-09-03T04:43:35;13.80;96.80
35970;DHT22;22448;51.298;6.430;2022-09-03T04:46:05;13.80;96.80
35970;DHT22;22448;51.298;6.430;2022-09-03T04:48:34;13.80;97.10
35970;DHT22;22448;51.298;6.430;2022-09-03T04:53:38;13.80;97.10
35970;DHT22;22448;51.298;6.430;2022-09-03T04:56:33;13.70;97.20
35970;DHT22;22448;51.298;6.430;2022-09-03T04:59:02;13.80;97.60
35970;DHT22;22448;51.298;6.430;2022-09-03T05:01:33;13.80;97.50
35970;DHT22;22448;51.298;6.430;2022-09-03T05:04:01;13.80;97.60
35970;DHT22;22448;51.298;6.430;2022-09-03T05:06:29;13.90;97.70
35970;DHT22;22448;51.298;6.430;2022-09-03T05:08:57;13.80;98.00
35970;DHT22;22448;51.298;6.430;2022-09-03T05:11:25;13.90;98.30
35970;DHT22;22448;51.298;6.430;2022-09-03T05:13:55;13.90;98.30
35970;DHT22;22448;51.298;6.430;2022-09-03T05:16:24;13.90;98.50
35970;DHT22;22448;51.298;6.430;2022-09-03T05:18:55;14.00;98.30
35970;DHT22;22448;51.298;6.430;2022-09-03T05:21:23;14.00;98.30
35970;DHT22;22448;51.298;6.430;2022-09-03T05:23:51;14.10;98.00
35970;DHT22;22448;51.298;6.430;2022-09-03T05:26:27;14.20;98.30
35970;DHT22;22448;51.298;6.430;2022-09-03T05:28:56;14.20;97.70
35970;DHT22;22448;51.298;6.430;2022-09-03T05:31:25;14.30;97.80
35970;DHT22;22448;51.298;6.430;2022-09-03T05:33:57;14.40;97.70
35970;DHT22;22448;51.298;6.430;2022-09-03T05:36:28;14.60;97.70
35970;DHT22;22448;51.298;6.430;2022-09-03T05:38:57;14.60;97.30
35970;DHT22;22448;51.298;6.430;2022-09-03T05:41:25;15.20;97.20
35970;DHT22;22448;51.298;6.430;2022-09-03T05:43:54;16.70;95.20
35970;DHT22;22448;51.298;6.430;2022-09-03T05:46:23;18.40;91.90
35970;DHT22;22448;51.298;6.430;2022-09-03T05:48:57;19.90;89.20
35970;DHT22;22448;51.298;6.430;2022-09-03T05:51:24;21.30;85.50
35970;DHT22;22448;51.298;6.430;2022-09-03T05:53:51;22.50;82.10
35970;DHT22;22448;51.298;6.430;2022-09-03T05:56:22;23.10;79.80
35970;DHT22;22448;51.298;6.430;2022-09-03T05:58:52;24.10;78.50
35970;DHT22;22448;51.298;6.430;2022-09-03T06:03:52;25.50;75.60
35970;DHT22;22448;51.298;6.430;2022-09-03T06:06:21;26.10;73.50
35970;DHT22;22448;51.298;6.430;2022-09-03T06:08:55;26.80;73.60
35970;DHT22;22448;51.298;6.430;2022-09-03T06:11:25;27.20;72.30
35970;DHT22;22448;51.298;6.430;2022-09-03T06:14:01;27.50;71.70
35970;DHT22;22448;51.298;6.430;2022-09-03T06:16:32;27.80;70.80
35970;DHT22;22448;51.298;6.430;2022-09-03T06:18:59;28.00;70.60
35970;DHT22;22448;51.298;6.430;2022-09-03T06:21:27;28.20;70.30
35970;DHT22;22448;51.298;6.430;2022-09-03T06:23:56;28.40;70.00
35970;DHT22;22448;51.298;6.430;2022-09-03T06:26:26;28.90;69.10
35970;DHT22;22448;51.298;6.430;2022-09-03T06:28:55;28.60;68.80
35970;DHT22;22448;51.298;6.430;2022-09-03T06:31:24;28.60;67.90
35970;DHT22;22448;51.298;6.430;2022-09-03T06:33:52;28.40;67.90
35970;DHT22;22448;51.298;6.430;2022-09-03T06:36:22;29.00;68.40
35970;DHT22;22448;51.298;6.430;2022-09-03T06:38:54;29.30;67.40
35970;DHT22;22448;51.298;6.430;2022-09-03T06:41:23;29.50;67.00
35970;DHT22;22448;51.298;6.430;2022-09-03T06:43:56;29.40;66.20
35970;DHT22;22448;51.298;6.430;2022-09-03T06:46:25;29.80;66.30
35970;DHT22;22448;51.298;6.430;2022-09-03T06:48:51;30.00;66.60
35970;DHT22;22448;51.298;6.430;2022-09-03T06:51:21;30.10;65.90
35970;DHT22;22448;51.298;6.430;2022-09-03T06:53:51;29.90;66.00
35970;DHT22;22448;51.298;6.430;2022-09-03T06:56:20;29.60;65.90
35970;DHT22;22448;51.298;6.430;2022-09-03T06:58:54;29.80;65.40
35970;DHT22;22448;51.298;6.430;2022-09-03T07:01:27;29.70;64.80
35970;DHT22;22448;51.298;6.430;2022-09-03T07:04:01;28.70;66.00
35970;DHT22;22448;51.298;6.430;2022-09-03T07:06:30;28.30;67.00
35970;DHT22;22448;51.298;6.430;2022-09-03T07:08:58;28.60;67.50
35970;DHT22;22448;51.298;6.430;2022-09-03T07:11:27;28.70;66.90
35970;DHT22;22448;51.298;6.430;2022-09-03T07:13:57;27.50;67.90
35970;DHT22;22448;51.298;6.430;2022-09-03T07:16:28;26.20;69.60
35970;DHT22;22448;51.298;6.430;2022-09-03T07:18:56;26.00;70.70
35970;DHT22;22448;51.298;6.430;2022-09-03T07:21:24;26.10;71.40
35970;DHT22;22448;51.298;6.430;2022-09-03T07:23:53;27.10;70.40
35970;DHT22;22448;51.298;6.430;2022-09-03T07:26:22;27.70;69.40
35970;DHT22;22448;51.298;6.430;2022-09-03T07:28:50;28.50;68.90
35970;DHT22;22448;51.298;6.430;2022-09-03T07:31:26;29.30;67.40
35970;DHT22;22448;51.298;6.430;2022-09-03T07:33:54;29.60;67.10
35970;DHT22;22448;51.298;6.430;2022-09-03T07:36:23;28.80;66.60
35970;DHT22;22448;51.298;6.430;2022-09-03T07:38:50;26.40;68.40
35970;DHT22;22448;51.298;6.430;2022-09-03T07:41:20;24.90;71.60
35970;DHT22;22448;51.298;6.430;2022-09-03T07:43:55;23.80;73.50
35970;DHT22;22448;51.298;6.430;2022-09-03T07:46:25;23.30;75.10
35970;DHT22;22448;51.298;6.430;2022-09-03T07:48:57;23.40;75.30
35970;DHT22;22448;51.298;6.430;2022-09-03T07:51:27;22.90;75.10
35970;DHT22;22448;51.298;6.430;2022-09-03T07:53:56;22.70;75.90
35970;DHT22;22448;51.298;6.430;2022-09-03T07:56:25;22.70;75.60
35970;DHT22;22448;51.298;6.430;2022-09-03T07:58:53;22.70;76.90
35970;DHT22;22448;51.298;6.430;2022-09-03T08:01:24;22.50;76.40
35970;DHT22;22448;51.298;6.430;2022-09-03T08:03:52;22.40;77.60
35970;DHT22;22448;51.298;6.430;2022-09-03T08:06:22;22.60;76.10
35970;DHT22;22448;51.298;6.430;2022-09-03T08:08:54;22.70;76.90
35970;DHT22;22448;51.298;6.430;2022-09-03T08:11:29;23.00;76.60
35970;DHT22;22448;51.298;6.430;2022-09-03T08:14:00;23.00;76.10
35970;DHT22;22448;51.298;6.430;2022-09-03T08:16:43;23.10;77.20
35970;DHT22;22448;51.298;6.430;2022-09-03T08:19:10;22.90;75.90
35970;DHT22;22448;51.298;6.430;2022-09-03T08:21:40;23.00;76.20
35970;DHT22;22448;51.298;6.430;2022-09-03T08:24:11;22.90;75.70
35970;DHT22;22448;51.298;6.430;2022-09-03T08:26:40;23.00;76.20
35970;DHT22;22448;51.298;6.430;2022-09-03T08:29:16;23.00;77.30
35970;DHT22;22448;51.298;6.430;2022-09-03T08:31:43;23.20;77.00
35970;DHT22;22448;51.298;6.430;2022-09-03T08:34:10;23.10;76.30
35970;DHT22;22448;51.298;6.430;2022-09-03T08:36:39;23.00;77.10
35970;DHT22;22448;51.298;6.430;2022-09-03T08:39:10;23.00;76.40
35970;DHT22;22448;51.298;6.430;2022-09-03T08:44:46;23.20;77.50
35970;DHT22;22448;51.298;6.430;2022-09-03T08:47:49;23.90;75.60
35970;DHT22;22448;51.298;6.430;2022-09-03T08:55:53;24.50;74.40
35970;DHT22;22448;51.298;6.430;2022-09-03T08:58:25;24.80;74.00
35970;DHT22;22448;51.298;6.430;2022-09-03T09:04:09;25.20;73.90
35970;DHT22;22448;51.298;6.430;2022-09-03T09:06:51;25.70;74.10
35970;DHT22;22448;51.298;6.430;2022-09-03T09:17:21;24.60;74.40
35970;DHT22;22448;51.298;6.430;2022-09-03T09:23:03;24.10;75.90
35970;DHT22;22448;51.298;6.430;2022-09-03T09:25:43;24.00;75.70
35970;DHT22;22448;51.298;6.430;2022-09-03T09:28:20;24.10;76.70
35970;DHT22;22448;51.298;6.430;2022-09-03T09:30:49;24.10;75.80
35970;DHT22;22448;51.298;6.430;2022-09-03T09:33:18;24.20;76.60
35970;DHT22;22448;51.298;6.430;2022-09-03T09:35:47;24.50;76.80
35970;DHT22;22448;51.298;6.430;2022-09-03T09:38:14;24.70;76.20
35970;DHT22;22448;51.298;6.430;2022-09-03T09:40:52;24.80;76.60
35970;DHT22;22448;51.298;6.430;2022-09-03T09:43:23;24.90;75.70
35970;DHT22;22448;51.298;6.430;2022-09-03T09:45:51;25.00;76.30
35970;DHT22;22448;51.298;6.430;2022-09-03T09:50:49;25.00;75.80
35970;DHT22;22448;51.298;6.430;2022-09-03T09:53:17;24.90;75.50
35970;DHT22;22448;51.298;6.430;2022-09-03T09:55:55;24.90;76.00
35970;DHT22;22448;51.298;6.430;2022-09-03T09:58:24;25.10;76.70
35970;DHT22;22448;51.298;6.430;2022-09-03T10:03:26;25.30;76.00
35970;DHT22;22448;51.298;6.430;2022-09-03T10:06:07;25.60;76.20
35970;DHT22;22448;51.298;6.430;2022-09-03T10:09:06;25.50;76.00
35970;DHT22;22448;51.298;6.430;2022-09-03T10:11:34;25.60;76.20
35970;DHT22;22448;51.298;6.430;2022-09-03T10:14:16;25.80;76.50
35970;DHT22;22448;51.298;6.430;2022-09-03T10:16:48;25.80;75.80
35970;DHT22;22448;51.298;6.430;2022-09-03T10:19:28;25.70;76.00
35970;DHT22;22448;51.298;6.430;2022-09-03T10:22:11;25.70;77.10
35970;DHT22;22448;51.298;6.430;2022-09-03T10:24:57;26.00;77.60
35970;DHT22;22448;51.298;6.430;2022-09-03T10:27:24;26.00;77.00
35970;DHT22;22448;51.298;6.430;2022-09-03T10:29:52;26.20;77.30
35970;DHT22;22448;51.298;6.430;2022-09-03T10:32:31;26.20;76.40
35970;DHT22;22448;51.298;6.430;2022-09-03T10:35:28;26.20;76.90
35970;DHT22;22448;51.298;6.430;2022-09-03T10:38:19;26.40;77.50
35970;DHT22;22448;51.298;6.430;2022-09-03T10:47:11;26.30;77.80
35970;DHT22;22448;51.298;6.430;2022-09-03T10:50:12;26.50;77.60
35970;DHT22;22448;51.298;6.430;2022-09-03T10:56:25;26.40;77.50
35970;DHT22;22448;51.298;6.430;2022-09-03T11:00:51;26.30;78.50
35970;DHT22;22448;51.298;6.430;2022-09-03T11:08:46;26.00;78.80
35970;DHT22;22448;51.298;6.430;2022-09-03T11:11:28;26.10;78.10
35970;DHT22;22448;51.298;6.430;2022-09-03T11:14:09;26.20;78.30
35970;DHT22;22448;51.298;6.430;2022-09-03T11:16:45;26.40;78.50
35970;DHT22;22448;51.298;6.430;2022-09-03T11:19:16;26.50;78.20
35970;DHT22;22448;51.298;6.430;2022-09-03T11:21:44;26.40;77.90
35970;DHT22;22448;51.298;6.430;2022-09-03T11:24:23;26.30;77.80
35970;DHT22;22448;51.298;6.430;2022-09-03T11:29:49;26.30;78.70
35970;DHT22;22448;51.298;6.430;2022-09-03T11:34:58;26.60;78.70
35970;DHT22;22448;51.298;6.430;2022-09-03T11:37:29;26.80;78.20
35970;DHT22;22448;51.298;6.430;2022-09-03T11:40:05;27.00;78.30
35970;DHT22;22448;51.298;6.430;2022-09-03T11:42:39;26.90;78.10
35970;DHT22;22448;51.298;6.430;2022-09-03T11:47:56;26.90;78.60
35970;DHT22;22448;51.298;6.430;2022-09-03T11:50:25;27.10;78.10
35970;DHT22;22448;51.298;6.430;2022-09-03T11:58:38;27.10;78.50
35970;DHT22;22448;51.298;6.430;2022-09-03T12:01:12;27.40;78.80
35970;DHT22;22448;51.298;6.430;2022-09-03T12:03:55;27.30;77.60
35970;DHT22;22448;51.298;6.430;2022-09-03T12:12:30;27.10;78.80
35970;DHT22;22448;51.298;6.430;2022-09-03T12:18:06;27.30;79.20
35970;DHT22;22448;51.298;6.430;2022-09-03T12:25:58;27.50;79.80
35970;DHT22;22448;51.298;6.430;2022-09-03T12:28:27;27.40;79.70
35970;DHT22;22448;51.298;6.430;2022-09-03T12:31:05;27.40;79.00
35970;DHT22;22448;51.298;6.430;2022-09-03T12:33:40;27.40;80.20
35970;DHT22;22448;51.298;6.430;2022-09-03T12:36:08;27.30;79.60
35970;DHT22;22448;51.298;6.430;2022-09-03T12:38:35;27.30;79.90
35970;DHT22;22448;51.298;6.430;2022-09-03T12:41:27;27.30;79.70
35970;DHT22;22448;51.298;6.430;2022-09-03T12:43:56;27.40;79.80
35970;DHT22;22448;51.298;6.430;2022-09-03T12:46:27;27.30;79.00
35970;DHT22;22448;51.298;6.430;2022-09-03T12:49:04;27.30;79.30
35970;DHT22;22448;51.298;6.430;2022-09-03T12:57:22;27.00;79.20
35970;DHT22;22448;51.298;6.430;2022-09-03T12:59:53;26.90;79.80
35970;DHT22;22448;51.298;6.430;2022-09-03T13:02:35;26.80;79.90
35970;DHT22;22448;51.298;6.430;2022-09-03T13:05:04;26.70;80.60
35970;DHT22;22448;51.298;6.430;2022-09-03T13:07:36;26.70;81.20
35970;DHT22;22448;51.298;6.430;2022-09-03T13:10:29;26.70;80.70
35970;DHT22;22448;51.298;6.430;2022-09-03T13:13:02;26.70;80.80
35970;DHT22;22448;51.298;6.430;2022-09-03T13:15:33;26.70;81.20
35970;DHT22;22448;51.298;6.430;2022-09-03T13:18:18;26.80;81.50
35970;DHT22;22448;51.298;6.430;2022-09-03T13:24:08;27.00;80.80
35970;DHT22;22448;51.298;6.430;2022-09-03T13:34:58;27.10;81.00
35970;DHT22;22448;51.298;6.430;2022-09-03T13:37:30;27.10;80.40
35970;DHT22;22448;51.298;6.430;2022-09-03T13:40:31;27.10;80.60
35970;DHT22;22448;51.298;6.430;2022-09-03T13:49:05;27.10;81.20
35970;DHT22;22448;51.298;6.430;2022-09-03T13:51:59;27.00;81.60
35970;DHT22;22448;51.298;6.430;2022-09-03T13:54:30;27.20;82.10
35970;DHT22;22448;51.298;6.430;2022-09-03T14:00:39;27.30;81.50
35970;DHT22;22448;51.298;6.430;2022-09-03T14:03:24;27.40;81.70
35970;DHT22;22448;51.298;6.430;2022-09-03T14:06:13;27.40;81.30
35970;DHT22;22448;51.298;6.430;2022-09-03T14:09:19;27.20;81.20
35970;DHT22;22448;51.298;6.430;2022-09-03T14:17:54;27.00;81.70
35970;DHT22;22448;51.298;6.430;2022-09-03T14:20:28;27.00;81.70
35970;DHT22;22448;51.298;6.430;2022-09-03T14:25:52;27.10;81.80
35970;DHT22;22448;51.298;6.430;2022-09-03T14:28:39;27.20;82.20
35970;DHT22;22448;51.298;6.430;2022-09-03T14:37:04;27.30;82.10
35970;DHT22;22448;51.298;6.430;2022-09-03T14:39:58;27.20;81.60
35970;DHT22;22448;51.298;6.430;2022-09-03T14:43:09;27.00;81.80
35970;DHT22;22448;51.298;6.430;2022-09-03T14:45:51;26.90;82.90
35970;DHT22;22448;51.298;6.430;2022-09-03T14:54:43;27.00;81.50
35970;DHT22;22448;51.298;6.430;2022-09-03T14:57:30;27.00;82.10
35970;DHT22;22448;51.298;6.430;2022-09-03T15:00:08;26.90;82.60
35970;DHT22;22448;51.298;6.430;2022-09-03T15:08:37;26.40;82.40
35970;DHT22;22448;51.298;6.430;2022-09-03T15:11:18;26.20;82.90
35970;DHT22;22448;51.298;6.430;2022-09-03T15:13:52;26.30;83.70
35970;DHT22;22448;51.298;6.430;2022-09-03T15:16:46;26.30;83.60
35970;DHT22;22448;51.298;6.430;2022-09-03T15:32:17;26.00;84.40
35970;DHT22;22448;51.298;6.430;2022-09-03T15:34:30;26.00;84.00
35970;DHT22;22448;51.298;6.430;2022-09-03T15:37:09;25.90;84.40
35970;DHT22;22448;51.298;6.430;2022-09-03T15:39:42;25.80;84.50
35970;DHT22;22448;51.298;6.430;2022-09-03T15:42:24;25.80;84.70
35970;DHT22;22448;51.298;6.430;2022-09-03T15:44:55;25.70;84.40
35970;DHT22;22448;51.298;6.430;2022-09-03T15:47:50;25.70;85.10
35970;DHT22;22448;51.298;6.430;2022-09-03T15:50:33;25.60;84.80
35970;DHT22;22448;51.298;6.430;2022-09-03T15:53:11;25.60;84.80
35970;DHT22;22448;51.298;6.430;2022-09-03T15:55:42;25.40;84.60
35970;DHT22;22448;51.298;6.430;2022-09-03T15:58:32;25.40;84.40
35970;DHT22;22448;51.298;6.430;2022-09-03T16:01:03;25.30;85.00
35970;DHT22;22448;51.298;6.430;2022-09-03T16:06:46;25.20;85.10
35970;DHT22;22448;51.298;6.430;2022-09-03T16:09:23;25.20;85.00
35970;DHT22;22448;51.298;6.430;2022-09-03T16:12:09;25.20;85.00
35970;DHT22;22448;51.298;6.430;2022-09-03T16:14:43;25.20;85.20
35970;DHT22;22448;51.298;6.430;2022-09-03T16:17:35;25.10;85.30
35970;DHT22;22448;51.298;6.430;2022-09-03T16:20:18;25.10;85.40
35970;DHT22;22448;51.298;6.430;2022-09-03T16:23:23;25.10;85.60
35970;DHT22;22448;51.298;6.430;2022-09-03T16:26:00;25.10;85.20
35970;DHT22;22448;51.298;6.430;2022-09-03T16:28:52;25.00;85.20
35970;DHT22;22448;51.298;6.430;2022-09-03T16:34:11;24.90;86.00
35970;DHT22;22448;51.298;6.430;2022-09-03T16:37:00;24.90;85.90
35970;DHT22;22448;51.298;6.430;2022-09-03T16:45:13;24.80;86.10
35970;DHT22;22448;51.298;6.430;2022-09-03T16:56:47;24.60;86.90
35970;DHT22;22448;51.298;6.430;2022-09-03T17:12:49;24.20;88.80
35970;DHT22;22448;51.298;6.430;2022-09-03T17:15:52;24.10;89.20
35970;DHT22;22448;51.298;6.430;2022-09-03T17:18:47;24.00;89.00
35970;DHT22;22448;51.298;6.430;2022-09-03T17:21:33;24.00;89.00
35970;DHT22;22448;51.298;6.430;2022-09-03T17:29:58;23.90;89.00
35970;DHT22;22448;51.298;6.430;2022-09-03T17:32:37;23.90;89.20
35970;DHT22;22448;51.298;6.430;2022-09-03T17:35:19;23.80;89.10
35970;DHT22;22448;51.298;6.430;2022-09-03T17:38:11;23.80;89.70
35970;DHT22;22448;51.298;6.430;2022-09-03T17:45:53;23.50;90.30
35970;DHT22;22448;51.298;6.430;2022-09-03T17:48:48;23.50;90.30
35970;DHT22;22448;51.298;6.430;2022-09-03T17:54:25;23.30;90.80
35970;DHT22;22448;51.298;6.430;2022-09-03T17:59:52;23.20;91.50
35970;DHT22;22448;51.298;6.430;2022-09-03T18:02:31;23.20;91.70
35970;DHT22;22448;51.298;6.430;2022-09-03T18:07:41;23.10;92.10
35970;DHT22;22448;51.298;6.430;2022-09-03T18:10:29;22.90;92.40
35970;DHT22;22448;51.298;6.430;2022-09-03T18:13:30;22.90;92.60
35970;DHT22;22448;51.298;6.430;2022-09-03T18:18:49;22.60;93.30
35970;DHT22;22448;51.298;6.430;2022-09-03T18:21:22;22.50;93.80
35970;DHT22;22448;51.298;6.430;2022-09-03T18:24:34;22.40;94.30
35970;DHT22;22448;51.298;6.430;2022-09-03T18:27:27;22.20;94.70
35970;DHT22;22448;51.298;6.430;2022-09-03T18:30:15;22.10;95.40
35970;DHT22;22448;51.298;6.430;2022-09-03T18:33:00;21.90;95.80
35970;DHT22;22448;51.298;6.430;2022-09-03T18:35:46;21.80;96.50
35970;DHT22;22448;51.298;6.430;2022-09-03T18:38:35;21.60;97.10
35970;DHT22;22448;51.298;6.430;2022-09-03T18:44:55;21.40;97.80
35970;DHT22;22448;51.298;6.430;2022-09-03T18:48:11;21.30;98.30
35970;DHT22;22448;51.298;6.430;2022-09-03T18:51:33;21.20;98.60
35970;DHT22;22448;51.298;6.430;2022-09-03T18:58:02;21.00;99.50
35970;DHT22;22448;51.298;6.430;2022-09-03T19:04:23;21.10;99.90
35970;DHT22;22448;51.298;6.430;2022-09-03T19:10:10;21.20;99.90
35970;DHT22;22448;51.298;6.430;2022-09-03T19:22:41;21.30;99.90
35970;DHT22;22448;51.298;6.430;2022-09-03T19:25:28;21.30;99.90
35970;DHT22;22448;51.298;6.430;2022-09-03T19:31:19;21.20;99.90
35970;DHT22;22448;51.298;6.430;2022-09-03T19:37:13;21.00;99.90
35970;DHT22;22448;51.298;6.430;2022-09-03T19:46:42;20.80;99.90
35970;DHT22;22448;51.298;6.430;2022-09-03T19:55:23;20.60;99.90
35970;DHT22;22448;51.298;6.430;2022-09-03T19:58:12;20.60;99.90
35970;DHT22;22448;51.298;6.430;2022-09-03T20:01:10;20.60;99.90
35970;DHT22;22448;51.298;6.430;2022-09-03T20:03:59;20.50;99.90
35970;DHT22;22448;51.298;6.430;2022-09-03T20:06:48;20.50;99.90
35970;DHT22;22448;51.298;6.430;2022-09-03T20:09:37;20.50;99.90
35970;DHT22;22448;51.298;6.430;2022-09-03T20:12:28;20.40;99.90
35970;DHT22;22448;51.298;6.430;2022-09-03T20:14:55;20.40;99.90
35970;DHT22;22448;51.298;6.430;2022-09-03T20:23:35;20.20;99.90
35970;DHT22;22448;51.298;6.430;2022-09-03T20:29:44;20.10;99.90
35970;DHT22;22448;51.298;6.430;2022-09-03T20:34:57;19.90;99.90
35970;DHT22;22448;51.298;6.430;2022-09-03T20:37:32;19.90;99.90
35970;DHT22;22448;51.298;6.430;2022-09-03T20:46:16;19.70;99.90
35970;DHT22;22448;51.298;6.430;2022-09-03T20:51:15;19.50;99.90
35970;DHT22;22448;51.298;6.430;2022-09-03T20:59:02;19.40;99.90
35970;DHT22;22448;51.298;6.430;2022-09-03T21:01:43;19.30;99.90
35970;DHT22;22448;51.298;6.430;2022-09-03T21:04:27;19.30;99.90
35970;DHT22;22448;51.298;6.430;2022-09-03T21:07:15;19.20;99.90
35970;DHT22;22448;51.298;6.430;2022-09-03T21:15:27;19.10;99.90
35970;DHT22;22448;51.298;6.430;2022-09-03T21:21:09;19.00;99.90
35970;DHT22;22448;51.298;6.430;2022-09-03T21:23:42;19.00;99.90
35970;DHT22;22448;51.298;6.430;2022-09-03T21:26:16;18.90;99.90
35970;DHT22;22448;51.298;6.430;2022-09-03T21:31:39;18.80;99.90
35970;DHT22;22448;51.298;6.430;2022-09-03T21:34:11;18.80;99.90
35970;DHT22;22448;51.298;6.430;2022-09-03T21:36:42;18.80;99.90
35970;DHT22;22448;51.298;6.430;2022-09-03T21:39:14;18.70;99.90
35970;DHT22;22448;51.298;6.430;2022-09-03T21:42:06;18.70;99.90
35970;DHT22;22448;51.298;6.430;2022-09-03T21:47:09;18.60;99.90
35970;DHT22;22448;51.298;6.430;2022-09-03T21:52:32;18.50;99.90
35970;DHT22;22448;51.298;6.430;2022-09-03T21:55:18;18.50;99.90
35970;DHT22;22448;51.298;6.430;2022-09-03T22:00:56;18.40;99.90
35970;DHT22;22448;51.298;6.430;2022-09-03T22:03:27;18.40;99.90